Bookmark and Share
Track history (hours):
 

Justice

More information available from US FCC via Universal Licensing System and Coast Guard Vessel Documentation Center.

Last reported at 2014-Apr-20 00:34 UTC. Time now 2014-Apr-20 00:45 UTC.
Position N 42°23' W 071°03'.

Length 30 m; draft 5.8 m.

Type: Tug. MMSI: 367513010.

NotesDate/timePositionNaut miles runAvg speedWind from/ knotsBaromVisibWave heightAir tempDewpointWater temp
2014-Apr-20 00:34N 42°23' W 071°03'0 0.0
2014-Apr-19 23:33N 42°23' W 071°03'0 0.0
2014-Apr-19 22:33N 42°23' W 071°03'0 0.0
2014-Apr-19 21:33N 42°23' W 071°03'0 0.0
2014-Apr-19 20:34N 42°23' W 071°03'0 0.0
2014-Apr-19 19:33N 42°23' W 071°03'0 0.0
2014-Apr-19 18:33N 42°23' W 071°03'0 0.1
2014-Apr-19 17:33N 42°23' W 071°03'0 0.3
2014-Apr-19 16:34N 42°23' W 071°03'0 0.5
2014-Apr-19 15:33N 42°23' W 071°02'3 2.5
2014-Apr-19 14:34N 42°21' W 071°01'2 2.5
2014-Apr-19 13:34N 42°23' W 071°03'0 0.0
2014-Apr-19 12:34N 42°23' W 071°03'0 0.0
2014-Apr-19 11:33N 42°23' W 071°03'1 1.3
2014-Apr-19 10:33N 42°24' W 071°01'2 1.8
2014-Apr-19 09:33N 42°22' W 071°03'1 0.5
2014-Apr-19 08:34N 42°23' W 071°03'0 0.0
2014-Apr-19 07:34N 42°23' W 071°03'0 0.0
2014-Apr-19 06:34N 42°23' W 071°03'1 0.8
2014-Apr-19 05:34N 42°23' W 071°03'1 1.2
2014-Apr-19 04:33N 42°22' W 071°03'1 1.3
2014-Apr-19 03:33N 42°23' W 071°02'1 0.6
2014-Apr-19 02:31N 42°23' W 071°02'0 0.4
2014-Apr-19 01:33N 42°23' W 071°03'0 0.0
2014-Apr-19 00:33N 42°23' W 071°03'0 0.0
2014-Apr-18 23:29N 42°23' W 071°03'0 0.0
2014-Apr-18 22:33N 42°23' W 071°03'1 0.7
2014-Apr-18 21:21N 42°23' W 071°04'1 1.1
2014-Apr-18 20:33N 42°23' W 071°03'0 0.0
2014-Apr-18 19:34N 42°23' W 071°03'0 0.0
2014-Apr-18 18:34N 42°23' W 071°03'0 0.0
2014-Apr-18 17:33N 42°23' W 071°03'0 0.0
2014-Apr-18 16:33N 42°23' W 071°03'0 0.0
2014-Apr-18 15:33N 42°23' W 071°03'0 0.0
2014-Apr-18 14:33N 42°23' W 071°03'0 0.0
2014-Apr-18 13:33N 42°23' W 071°03'1 1.2
2014-Apr-18 12:34N 42°22' W 071°02'1 0.9
2014-Apr-18 11:34N 42°22' W 071°03'0 0.4
2014-Apr-18 10:33N 42°23' W 071°03'0 0.1
2014-Apr-18 09:33N 42°23' W 071°03'0 0.1
2014-Apr-18 08:34N 42°23' W 071°03'0 0.0
2014-Apr-18 07:34N 42°23' W 071°03'0 0.0
2014-Apr-18 06:33N 42°23' W 071°03'0 0.0
2014-Apr-18 05:33N 42°23' W 071°03'0 0.0
2014-Apr-18 04:32N 42°23' W 071°03'0 0.0
2014-Apr-18 03:33N 42°23' W 071°03'0 0.0
2014-Apr-18 02:33N 42°23' W 071°03'0 0.0
2014-Apr-18 01:33N 42°23' W 071°03'0 0.0
2014-Apr-18 00:33N 42°23' W 071°03'1 0.8
2014-Apr-17 23:33N 42°23' W 071°02'0 0.2
2014-Apr-17 22:33N 42°23' W 071°02'2 2.0
2014-Apr-17 21:34N 42°21' W 071°02'2 1.8
2014-Apr-17 20:34N 42°23' W 071°03'0 0.0
2014-Apr-17 19:34N 42°23' W 071°03'0 0.0
2014-Apr-17 18:34N 42°23' W 071°03'0 0.0
2014-Apr-17 17:34N 42°23' W 071°03'0 0.0
2014-Apr-17 16:33N 42°23' W 071°03'0 0.0
2014-Apr-17 15:34N 42°23' W 071°03'0 0.0
2014-Apr-17 14:33N 42°23' W 071°03'0 0.0
2014-Apr-17 13:33N 42°23' W 071°03'0 0.0
2014-Apr-17 12:33N 42°23' W 071°03'0 0.0
2014-Apr-17 11:33N 42°23' W 071°03'0 0.0
2014-Apr-17 10:34N 42°23' W 071°03'0 0.0
2014-Apr-17 09:34N 42°23' W 071°03'0 0.0
2014-Apr-17 08:34N 42°23' W 071°03'0 0.0
2014-Apr-17 07:33N 42°23' W 071°03'1 0.7
2014-Apr-17 06:34N 42°23' W 071°03'1 0.9
2014-Apr-17 05:34N 42°22' W 071°03'1 0.9
2014-Apr-17 04:33N 42°22' W 071°02'2 2.3
2014-Apr-17 03:33N 42°24' W 071°01'1 1.5
2014-Apr-17 02:34N 42°23' W 071°03'0 0.0
2014-Apr-17 01:33N 42°23' W 071°03'0 0.0
2014-Apr-17 00:34N 42°23' W 071°03'0 0.0
2014-Apr-16 23:33N 42°23' W 071°03'0 0.0
2014-Apr-16 22:33N 42°23' W 071°03'0 0.0
2014-Apr-16 21:33N 42°23' W 071°03'0 0.0
2014-Apr-16 20:30N 42°23' W 071°03'0 0.0
2014-Apr-16 19:33N 42°23' W 071°03'5 4.5
2014-Apr-16 18:32N 42°20' W 070°58'2 1.0
2014-Apr-16 16:23N 42°18' W 070°56'5 5.4
2014-Apr-16 15:33N 42°21' W 071°01'1 0.8
2014-Apr-16 14:33N 42°21' W 071°02'2 2.4
2014-Apr-16 13:33N 42°23' W 071°04'2 2.0
2014-Apr-16 12:28N 42°24' W 071°01'2 1.9
2014-Apr-16 11:34N 42°23' W 071°03'0 0.0
2014-Apr-16 10:33N 42°23' W 071°03'0 0.0
2014-Apr-16 09:33N 42°23' W 071°03'0 0.0
2014-Apr-16 08:33N 42°23' W 071°03'4 4.1
2014-Apr-16 07:34N 42°20' W 070°58'5 4.9
2014-Apr-16 06:33N 42°23' W 071°03'1 0.8
2014-Apr-16 05:34N 42°23' W 071°03'0 0.0
2014-Apr-16 04:33N 42°23' W 071°03'0 0.0
2014-Apr-16 03:34N 42°23' W 071°03'0 0.0
2014-Apr-16 02:33N 42°23' W 071°03'0 0.0
2014-Apr-16 01:34N 42°23' W 071°03'2 2.5
2014-Apr-16 00:34N 42°21' W 071°01'0 0.0
2014-Apr-15 23:33N 42°21' W 071°01'0 0.1
2014-Apr-15 22:15N 42°21' W 071°01'0 0.4
2014-Apr-15 21:33N 42°21' W 071°01'0 0.0
2014-Apr-15 20:34N 42°21' W 071°01'3 2.5
2014-Apr-15 19:34N 42°23' W 071°03'0 0.0
2014-Apr-15 18:33N 42°23' W 071°03'0 0.0
2014-Apr-15 17:33N 42°23' W 071°03'0 0.5
2014-Apr-15 16:33N 42°22' W 071°03'1 0.9
2014-Apr-15 15:34N 42°23' W 071°02'1 1.3
2014-Apr-15 14:34N 42°22' W 071°03'1 0.4
2014-Apr-15 12:34N 42°23' W 071°03'0 0.0
2014-Apr-15 11:34N 42°23' W 071°03'1 0.5
2014-Apr-15 10:33N 42°23' W 071°02'0 0.2
2014-Apr-15 09:33N 42°23' W 071°02'0 0.5
2014-Apr-15 08:34N 42°23' W 071°03'0 0.0
2014-Apr-15 06:34N 42°23' W 071°03'0 0.0
2014-Apr-15 05:34N 42°23' W 071°03'0 0.0
2014-Apr-15 03:34N 42°23' W 071°03'0 0.0
2014-Apr-15 02:34N 42°23' W 071°03'1 0.7
2014-Apr-15 01:34N 42°22' W 071°03'3 2.6
2014-Apr-15 00:33N 42°20' W 071°00'1 1.1
2014-Apr-14 23:34N 42°20' W 070°59'4 3.8
2014-Apr-14 22:34N 42°22' W 071°03'0 0.3
2014-Apr-14 21:34N 42°23' W 071°03'0 0.0
2014-Apr-14 20:34N 42°23' W 071°03'0 0.0
2014-Apr-14 19:34N 42°23' W 071°03'0 0.1
2014-Apr-14 18:34N 42°23' W 071°03'0 0.1
2014-Apr-14 17:34N 42°23' W 071°03'0 0.0
2014-Apr-14 16:33N 42°23' W 071°03'0 0.0
2014-Apr-14 15:34N 42°23' W 071°03'0 0.0
2014-Apr-14 14:33N 42°23' W 071°03'0 0.0
2014-Apr-14 11:34N 42°23' W 071°03'0 0.0
2014-Apr-14 10:33N 42°23' W 071°03'1 1.3
2014-Apr-14 09:34N 42°23' W 071°01'1 1.3
2014-Apr-14 08:34N 42°23' W 071°03'0 0.0
2014-Apr-14 07:33N 42°23' W 071°03'0 0.0
2014-Apr-14 06:33N 42°23' W 071°03'0 0.0
2014-Apr-14 05:33N 42°23' W 071°03'0 0.0
2014-Apr-13 22:33N 42°23' W 071°03'1 1.2
2014-Apr-13 21:23N 42°24' W 071°01'1 0.7
2014-Apr-13 20:30N 42°23' W 071°02'0 0.3
2014-Apr-13 19:32N 42°23' W 071°02'1 0.5
2014-Apr-13 18:33N 42°23' W 071°03'0 0.0
2014-Apr-13 17:34N 42°23' W 071°03'0 0.0
2014-Apr-13 16:33N 42°23' W 071°03'2 2.2
2014-Apr-13 15:33N 42°21' W 071°01'7 2.2
2014-Apr-13 12:32N 42°15' W 070°58'3 2.6
2014-Apr-13 11:33N 42°17' W 070°56'2 2.1
2014-Apr-13 10:30N 42°15' W 070°57'5 5.7
2014-Apr-13 09:33N 42°20' W 070°60'3 2.7
2014-Apr-13 08:17N 42°23' W 071°03'0 0.0
2014-Apr-13 07:34N 42°23' W 071°03'0 0.0
2014-Apr-13 06:34N 42°23' W 071°03'0 0.0
2014-Apr-13 05:33N 42°23' W 071°03'0 0.0
2014-Apr-13 04:33N 42°23' W 071°03'0 0.0
2014-Apr-13 03:33N 42°23' W 071°03'0 0.0
2014-Apr-13 02:31N 42°23' W 071°03'0 0.3
2014-Apr-13 01:33N 42°23' W 071°03'1 0.8
2014-Apr-13 00:34N 42°23' W 071°02'1 0.6
2014-Apr-12 23:05N 42°24' W 071°01'0 0.1
2014-Apr-12 22:31N 42°24' W 071°01'1 1.0
2014-Apr-12 21:34N 42°23' W 071°02'1 1.2
2014-Apr-12 20:34N 42°22' W 071°03'1 0.6
2014-Apr-12 19:33N 42°23' W 071°03'0 0.0
2014-Apr-12 18:33N 42°23' W 071°03'0 0.0
2014-Apr-12 17:33N 42°23' W 071°03'0 0.0
2014-Apr-12 16:30N 42°23' W 071°03'3 2.7
2014-Apr-12 15:33N 42°21' W 071°01'4 1.2
2014-Apr-12 12:27N 42°20' W 070°56'6 6.5
2014-Apr-12 11:33N 42°23' W 071°03'0 0.0
2014-Apr-12 10:34N 42°23' W 071°03'0 0.0
2014-Apr-12 09:33N 42°23' W 071°03'0 0.0
2014-Apr-12 08:33N 42°23' W 071°03'0 0.0
2014-Apr-12 07:34N 42°23' W 071°03'0 0.0
2014-Apr-12 06:34N 42°23' W 071°03'2 1.6
2014-Apr-12 05:33N 42°24' W 071°01'2 1.6
2014-Apr-12 04:34N 42°23' W 071°03'0 0.0
2014-Apr-12 03:34N 42°23' W 071°03'0 0.0
2014-Apr-12 02:32N 42°23' W 071°03'0 0.0
2014-Apr-12 01:33N 42°23' W 071°03'3 2.5
2014-Apr-12 00:33N 42°21' W 071°01'0 0.1
2014-Apr-11 21:34N 42°20' W 071°01'1 0.5
2014-Apr-11 20:34N 42°21' W 071°01'2 2.4
2014-Apr-11 19:33N 42°23' W 071°03'0 0.0
2014-Apr-11 18:33N 42°23' W 071°03'0 0.0
2014-Apr-11 17:33N 42°23' W 071°03'0 0.0
2014-Apr-11 16:34N 42°23' W 071°03'0 0.0
2014-Apr-11 15:31N 42°23' W 071°03'0 0.0
2014-Apr-11 14:33N 42°23' W 071°03'0 0.0
2014-Apr-11 13:33N 42°23' W 071°03'0 0.0
2014-Apr-11 12:33N 42°23' W 071°03'0 0.0
2014-Apr-11 11:33N 42°23' W 071°03'2 1.6
2014-Apr-11 10:33N 42°24' W 071°01'2 2.3
2014-Apr-11 09:33N 42°22' W 071°03'1 0.9
2014-Apr-11 08:34N 42°23' W 071°03'0 0.0
2014-Apr-11 07:33N 42°23' W 071°03'0 0.3
2014-Apr-11 06:33N 42°23' W 071°03'0 0.3
2014-Apr-11 05:33N 42°23' W 071°03'0 0.0
2014-Apr-11 04:34N 42°23' W 071°03'1 1.4
2014-Apr-11 03:33N 42°21' W 071°02'2 2.2
2014-Apr-11 02:31N 42°20' W 070°60'3 3.6
2014-Apr-11 01:33N 42°23' W 071°03'0 0.0
2014-Apr-11 00:26N 42°23' W 071°03'0 0.0
2014-Apr-10 23:34N 42°23' W 071°03'1 1.4
2014-Apr-10 22:33N 42°24' W 071°01'0 0.3
2014-Apr-10 21:30N 42°24' W 071°01'2 1.7
2014-Apr-10 20:33N 42°23' W 071°03'0 0.0
2014-Apr-10 19:33N 42°23' W 071°03'0 0.0
2014-Apr-10 18:33N 42°23' W 071°03'0 0.0
2014-Apr-10 17:33N 42°23' W 071°03'0 0.0
2014-Apr-10 16:33N 42°23' W 071°03'0 0.0
2014-Apr-10 15:33N 42°23' W 071°03'0 0.0
2014-Apr-10 14:33N 42°23' W 071°03'0 0.0
2014-Apr-10 13:33N 42°23' W 071°03'0 0.5
2014-Apr-10 12:33N 42°23' W 071°02'0 0.0
2014-Apr-10 11:33N 42°23' W 071°02'0 0.1
2014-Apr-10 10:34N 42°23' W 071°02'1 0.5
2014-Apr-10 09:33N 42°23' W 071°01'1 1.4
2014-Apr-10 08:33N 42°22' W 071°03'1 0.5
2014-Apr-10 07:33N 42°23' W 071°03'0 0.0
2014-Apr-10 06:33N 42°23' W 071°03'1 0.8
2014-Apr-10 05:34N 42°23' W 071°03'1 0.9
2014-Apr-10 04:34N 42°23' W 071°03'0 0.3
2014-Apr-10 03:33N 42°23' W 071°03'0 0.0
2014-Apr-10 02:33N 42°23' W 071°03'0 0.0
2014-Apr-10 01:34N 42°23' W 071°03'0 0.0
2014-Apr-10 00:34N 42°23' W 071°03'  

Dump ship's entire track history

sailing weather and tide predictions

Justice — WDG2184 — position and weather